EDJA METAR and TAF | Updated Today

EDJA METAR

Memmingen Allgau Airport

Observation time: 33 min. ago

EDJA 200650Z 20004KT 170V230 CAVOK 20/13 Q1024

Need help? Read our tutorial on how to read METARs or read the parsed version below.

Memmingen Allgau Airport (EDJA) METAR

  • Weather conditions on Fri, 20 May 2022 06:50:00 +0000 (33 min. ago):
  • Present conditions: Dry
  • Clouds: Clear skies
  • Visibility: Greater than 10 km
  • Wind: 200 degrees at 4 knots
  • Temperature: 20 celsius
  • Dew point: 13 celsius
  • Pressure: 1024 millibars
  • Remarks: None


Useful to know...

EDJA TAF

Memmingen Allgau Airport

TAF EDJA 200500Z 2006/2015 21005KT CAVOK BECMG 2010/2012 24012KT
Observation time: 2:23 hr. ago
Need help? Read our tutorial on how to read TAFs or read the parsed version below.

Parsed version of TAF for Memmingen Allgau Airport (EDJA)

  • From 20 May at 06:00 UTC, to day 20 of the month at 15:00 UTC
  • Visibility: Greater than 10 km
  • Wind: 210 degrees at 5
  • Expected to arise soon, from 20 May at 10:00 UTC, to day 20 of the month at 12:00 UTC
  • Wind: 240 degrees at 12